Terminal Aerodrome Forecast
Issued by NWS Sioux Falls, SD

Home | Current Version | Previous Version | Text Only | Print | Product List | Glossary On
Versions: 1 2 3 4 5 6 7 8 9 10 11 12 13 14 15 16
000
FTUS43 KFSD 221722
TAFSUX
TAF
KSUX 221722Z 2218/2318 18019G28KT P6SM SKC
     FM230300 16012KT P6SM FEW250
     FM230500 15011KT P6SM FEW250 WS010/19040KT
     FM231300 16011KT P6SM SCT150
     FM231700 16015G23KT P6SM BKN100=

USA.gov is the U.S. government's official web portal to all federal, state and local government web resources and services.